Hove, Belgium
Current Conditions -  °F | °C
As of 10:50 AM on Tuesday 21 Oct 2014 (Local Time) from EBAW Reporting Station
Broken Clouds Broken Clouds  
Wind Chill: 55°   Ceiling: 1600
Heat Index: 55°   Visibility: 6mi
Dew Point: 50°   Wind: 16mph
Humidity: 82%   Direction: 200°SSW
Pressure: 29.65"   Gusts: NA
Location:  51.15°N, 4.47°E
Report Text: EBAW 210850Z 20014KT 9999 SCT012 BKN016 13/10 Q1004 TEMPO 21015G25KT BKN013
Loading
Personal Weather Stations






























Interactive Weather Map New forecast layout! Learn more

10-Day Weather Forecast

Advertisements
Track Severe Weather on mobile